createdAt,value
2018-10-09T01:40:07.169Z,13.40
2018-10-09T01:42:34.988Z,9.30
2018-10-09T01:45:02.900Z,9.70
2018-10-09T01:47:30.785Z,9.00
2018-10-09T01:49:58.536Z,7.83
2018-10-09T01:52:26.368Z,13.20
2018-10-09T01:54:54.204Z,9.57
2018-10-09T01:57:22.029Z,7.43
2018-10-09T01:59:49.892Z,11.83
2018-10-09T02:02:17.541Z,19.83
2018-10-09T02:04:45.428Z,9.27
2018-10-09T02:07:13.178Z,8.50
2018-10-09T02:09:40.984Z,9.70
2018-10-09T02:12:08.808Z,16.83
2018-10-09T02:14:36.468Z,15.57
2018-10-09T02:17:04.320Z,10.73
2018-10-09T02:19:32.131Z,8.17
2018-10-09T02:21:59.844Z,10.30
2018-10-09T02:24:27.668Z,12.07
2018-10-09T02:26:55.406Z,11.53
2018-10-09T02:29:23.075Z,11.03
2018-10-09T02:31:50.700Z,12.57
2018-10-09T02:34:18.547Z,13.20
2018-10-09T02:36:46.456Z,9.60
2018-10-09T02:39:14.505Z,8.20
2018-10-09T02:41:42.214Z,11.57
2018-10-09T02:44:10.126Z,11.37
2018-10-09T02:46:37.932Z,14.30
2018-10-09T02:49:06.097Z,12.67
2018-10-09T02:51:33.943Z,12.63
2018-10-09T02:54:01.689Z,14.37
2018-10-09T02:56:29.434Z,19.43
2018-10-09T02:58:57.124Z,16.80
2018-10-09T03:01:24.892Z,18.03
2018-10-09T03:03:52.708Z,12.77
2018-10-09T03:06:20.440Z,17.37
2018-10-09T03:08:48.102Z,9.33
2018-10-09T03:11:16.043Z,11.47
2018-10-09T03:13:43.865Z,12.37
2018-10-09T03:16:11.553Z,16.67
2018-10-09T03:18:39.411Z,19.30
2018-10-09T03:21:07.383Z,12.97
2018-10-09T03:23:35.354Z,13.00
2018-10-09T03:26:03.204Z,12.67
2018-10-09T03:28:31.015Z,12.60
2018-10-09T03:30:58.731Z,11.73
2018-10-09T03:33:26.541Z,14.73
2018-10-09T03:35:54.567Z,15.83
2018-10-09T03:38:22.532Z,10.63
2018-10-09T03:40:50.768Z,18.90
2018-10-09T03:43:18.552Z,10.47
2018-10-09T03:45:46.414Z,18.70
2018-10-09T03:48:15.089Z,15.27
2018-10-09T03:50:43.557Z,15.33
2018-10-09T03:53:11.530Z,12.40
2018-10-09T03:55:39.324Z,14.17
2018-10-09T03:58:07.189Z,17.27
2018-10-09T04:00:35.068Z,17.10
2018-10-09T04:03:02.902Z,12.77
2018-10-09T04:05:30.841Z,15.27
2018-10-09T04:07:58.835Z,15.37
2018-10-09T04:10:26.513Z,14.63
2018-10-09T04:12:54.150Z,17.77
2018-10-09T04:15:26.738Z,11.90
2018-10-09T04:17:54.657Z,14.63
2018-10-09T04:20:22.673Z,15.93
2018-10-09T04:22:50.305Z,17.20
2018-10-09T04:25:18.010Z,15.17
2018-10-09T04:27:45.671Z,13.90
2018-10-09T04:30:13.414Z,16.90
2018-10-09T04:32:41.277Z,17.77
2018-10-09T04:35:15.595Z,14.77
2018-10-09T04:37:44.156Z,18.60
2018-10-09T04:40:11.798Z,17.80
2018-10-09T04:42:39.739Z,20.27
2018-10-09T04:45:08.113Z,16.63
2018-10-09T04:47:36.290Z,12.53
2018-10-09T04:50:04.286Z,21.50
2018-10-09T04:52:32.452Z,17.37
2018-10-09T04:55:00.445Z,19.10
2018-10-09T04:57:28.671Z,19.57
2018-10-09T04:59:56.804Z,21.80
2018-10-09T05:02:24.770Z,31.10
2018-10-09T05:04:52.693Z,21.67
2018-10-09T05:07:21.051Z,32.10
2018-10-09T05:09:48.800Z,22.10
2018-10-09T05:12:16.424Z,26.80
2018-10-09T05:14:44.067Z,19.57
2018-10-09T05:17:11.873Z,22.83
2018-10-09T05:19:39.625Z,25.40
2018-10-09T05:22:07.382Z,18.40
2018-10-09T05:24:35.289Z,24.57
2018-10-09T05:27:03.340Z,19.50
2018-10-09T05:29:31.217Z,19.03
2018-10-09T05:31:58.988Z,20.33
2018-10-09T05:34:26.829Z,22.33
2018-10-09T05:36:56.491Z,21.13
2018-10-09T05:39:24.280Z,20.63
2018-10-09T05:41:51.941Z,19.97
2018-10-09T05:44:20.226Z,19.60
2018-10-09T05:46:47.766Z,18.70
2018-10-09T05:49:15.869Z,21.20
2018-10-09T05:51:43.629Z,19.90
2018-10-09T05:54:11.444Z,18.30
2018-10-09T05:56:39.505Z,20.83
2018-10-09T05:59:07.213Z,21.67
2018-10-09T06:01:35.080Z,19.83
2018-10-09T06:04:02.975Z,24.13
2018-10-09T06:06:30.873Z,27.13
2018-10-09T06:08:58.510Z,18.10
2018-10-09T06:11:26.281Z,22.10
2018-10-09T06:13:54.036Z,23.20
2018-10-09T06:16:21.883Z,29.40
2018-10-09T06:18:49.556Z,22.80
2018-10-09T06:21:17.329Z,18.90
2018-10-09T06:23:45.282Z,20.37
2018-10-09T06:26:13.164Z,24.30
2018-10-09T06:28:41.078Z,23.13
2018-10-09T06:31:08.965Z,16.53
2018-10-09T06:33:36.615Z,18.17
2018-10-09T06:36:04.545Z,20.07
2018-10-09T06:38:33.038Z,22.63
2018-10-09T06:41:01.025Z,22.50
2018-10-09T06:43:28.699Z,19.17
2018-10-09T06:45:56.752Z,19.30
2018-10-09T06:48:24.633Z,20.30
2018-10-09T06:50:52.431Z,20.87
2018-10-09T06:53:20.350Z,18.40
2018-10-09T06:55:48.230Z,22.57
2018-10-09T06:58:16.036Z,21.40
2018-10-09T07:00:43.904Z,18.83
2018-10-09T07:03:11.753Z,21.27
2018-10-09T07:05:39.473Z,22.03
2018-10-09T07:08:07.364Z,21.03
2018-10-09T07:10:35.115Z,23.50
2018-10-09T07:13:02.872Z,24.77
2018-10-09T07:15:30.479Z,22.33
2018-10-09T07:17:58.289Z,21.67
2018-10-09T07:20:25.925Z,22.33
2018-10-09T07:22:54.068Z,20.77
2018-10-09T07:25:22.077Z,23.80
2018-10-09T07:27:49.799Z,18.23
2018-10-09T07:30:17.567Z,25.73
2018-10-09T07:32:45.722Z,23.87
2018-10-09T07:35:13.386Z,19.90
2018-10-09T07:37:41.079Z,21.63
2018-10-09T07:40:08.921Z,17.70
2018-10-09T07:42:36.746Z,22.13
2018-10-09T07:45:04.547Z,19.00
2018-10-09T09:01:07.615Z,27.63
2018-10-09T09:03:35.327Z,37.23
2018-10-09T09:06:02.982Z,18.20
2018-10-09T09:08:30.748Z,30.73
2018-10-09T09:10:58.440Z,23.83
2018-10-09T09:13:26.162Z,27.93
2018-10-09T09:15:53.940Z,21.07
2018-10-09T09:18:21.906Z,31.53
2018-10-09T09:20:49.804Z,20.93
2018-10-09T09:23:17.502Z,23.23
2018-10-09T09:25:45.340Z,23.30
2018-10-09T09:28:13.096Z,22.33
2018-10-09T09:30:41.046Z,26.20
2018-10-09T09:33:09.001Z,22.50
2018-10-09T09:35:36.654Z,21.80
2018-10-09T09:38:04.467Z,23.27
2018-10-09T09:40:32.258Z,25.03
2018-10-09T09:43:00.175Z,18.20
2018-10-09T09:45:27.934Z,20.27
2018-10-09T09:47:55.927Z,18.27
2018-10-09T09:50:23.692Z,29.33
2018-10-09T09:52:51.307Z,17.97
2018-10-09T09:55:19.361Z,25.20
2018-10-09T09:57:47.106Z,23.77
2018-10-09T10:00:20.203Z,22.03
2018-10-09T10:02:47.981Z,19.03
2018-10-09T10:05:17.689Z,20.80
2018-10-09T10:10:13.270Z,27.53
2018-10-09T10:12:41.319Z,21.20
2018-10-09T10:15:09.478Z,24.00
2018-10-09T10:17:37.152Z,22.70
2018-10-09T10:20:04.894Z,20.20
2018-10-09T10:22:32.854Z,26.53
2018-10-09T10:25:00.455Z,26.07
2018-10-09T10:27:29.749Z,18.93
2018-10-09T19:38:03.856Z,21.40
2018-10-09T19:40:32.498Z,21.47
2018-10-09T19:43:00.287Z,26.40
2018-10-09T19:45:28.128Z,18.27
2018-10-09T19:47:55.805Z,22.60
2018-10-09T19:50:23.595Z,31.53
2018-10-09T19:52:51.372Z,24.37
2018-10-09T19:55:19.056Z,26.57
2018-10-09T19:57:46.941Z,24.73
2018-10-09T20:00:14.546Z,27.80
2018-10-09T20:02:42.477Z,22.13
2018-10-09T20:05:10.294Z,24.80
2018-10-09T20:07:38.063Z,23.90
2018-10-09T20:10:06.063Z,30.37
2018-10-09T20:12:34.010Z,29.80
2018-10-09T20:15:02.044Z,24.57
2018-10-09T20:17:29.835Z,31.37
2018-10-09T20:19:57.786Z,26.57
2018-10-09T20:22:25.521Z,29.40
2018-10-09T20:24:53.325Z,24.00
2018-10-09T20:27:21.171Z,25.90
2018-10-09T20:29:49.829Z,30.83
2018-10-09T20:32:17.577Z,28.20
2018-10-09T20:34:45.386Z,26.27
2018-10-09T20:37:13.179Z,24.60
2018-10-09T20:39:41.094Z,20.00
2018-10-09T20:42:08.866Z,24.03
2018-10-09T20:44:36.700Z,31.17
2018-10-09T20:47:04.416Z,23.50
2018-10-09T20:49:32.186Z,22.80
2018-10-09T20:51:59.944Z,40.17
2018-10-09T20:54:27.747Z,27.43
2018-10-09T20:56:55.681Z,34.50
2018-10-09T20:59:23.501Z,27.70
2018-10-09T21:01:51.386Z,20.17
2018-10-09T21:04:19.214Z,24.80
2018-10-09T21:06:47.465Z,24.70
2018-10-09T21:09:16.048Z,22.10
2018-10-09T21:11:44.036Z,26.97
2018-10-09T21:14:11.681Z,25.70
2018-10-09T21:16:39.464Z,24.40
2018-10-09T21:19:07.104Z,23.90
2018-10-09T21:21:35.262Z,39.03
2018-10-09T21:24:03.114Z,29.23
2018-10-09T21:26:30.880Z,27.80
2018-10-09T21:28:58.648Z,27.90
2018-10-09T21:31:26.461Z,28.37
2018-10-09T21:33:54.310Z,30.70
2018-10-09T21:36:22.393Z,27.20
2018-10-09T21:38:50.213Z,24.93
2018-10-09T21:41:18.131Z,29.50
2018-10-09T21:43:46.064Z,26.13
2018-10-09T21:46:14.050Z,29.60
2018-10-09T21:48:41.925Z,27.90
2018-10-09T21:51:09.779Z,38.77
2018-10-09T21:53:37.499Z,30.23
2018-10-09T21:56:05.292Z,29.03
2018-10-09T21:58:32.927Z,27.17
2018-10-09T22:01:06.162Z,28.30
2018-10-09T22:03:33.802Z,34.97
2018-10-09T22:06:01.549Z,31.50
2018-10-09T22:08:29.500Z,27.60
2018-10-09T22:10:57.842Z,28.27
2018-10-09T22:13:25.621Z,31.83
2018-10-09T22:15:53.442Z,26.00
2018-10-09T22:18:21.215Z,35.97
2018-10-09T22:20:49.205Z,27.53
2018-10-09T22:23:16.929Z,29.73
2018-10-09T22:25:45.088Z,25.87
2018-10-09T22:28:13.051Z,27.23
2018-10-09T22:30:40.802Z,31.20
2018-10-09T22:33:08.654Z,29.60
2018-10-09T22:35:36.284Z,31.10
2018-10-09T22:38:04.042Z,29.27
2018-10-09T22:40:31.807Z,26.55
2018-10-09T22:42:59.520Z,34.00
